Time;durP1;ratioP1;P1;durP2;ratioP2;P2;SDS_P1;SDS_P2;PMS_P1;PMS_P2;Temp;Humidity;BMP_temperature;BMP_pressure;BME280_temperature;BME280_humidity;BME280_pressure;Samples;Min_cycle;Max_cycle;Signal;HPM_P1;HPM_P2
2022/09/20 00:01:16;;;;;;;13.38;4.00;;;12.10;96.00;;;;;;5051746;28;20397;-72
2022/09/20 00:03:45;;;;;;;13.80;4.20;;;12.10;94.90;;;;;;5050275;28;20427;-73
2022/09/20 00:06:17;;;;;;;16.80;4.63;;;12.10;94.60;;;;;;5051614;28;20814;-72
2022/09/20 00:08:44;;;;;;;12.82;4.93;;;12.20;93.60;;;;;;5052698;28;20385;-73
2022/09/20 00:11:14;;;;;;;15.50;5.00;;;12.10;93.90;;;;;;5052003;28;20476;-72
2022/09/20 00:13:41;;;;;;;11.40;3.90;;;12.10;95.10;;;;;;5052241;28;20377;-71
2022/09/20 00:16:13;;;;;;;16.65;4.13;;;12.30;93.70;;;;;;5051328;28;20393;-72
2022/09/20 00:18:39;;;;;;;16.45;4.55;;;12.30;91.90;;;;;;5051185;28;20773;-73
2022/09/20 00:21:05;;;;;;;10.38;3.95;;;12.30;91.30;;;;;;5050781;28;20415;-73
2022/09/20 00:23:31;;;;;;;15.60;4.50;;;12.30;92.80;;;;;;5051246;28;20867;-72
2022/09/20 00:26:01;;;;;;;16.20;4.20;;;12.20;93.30;;;;;;5051044;28;20401;-72
2022/09/20 00:28:28;;;;;;;12.93;4.70;;;12.20;93.80;;;;;;5051054;28;20421;-73
2022/09/20 00:30:54;;;;;;;14.48;4.50;;;12.20;94.80;;;;;;5051013;28;20464;-73
2022/09/20 00:33:22;;;;;;;14.90;4.77;;;12.30;94.90;;;;;;5051071;28;20382;-73
2022/09/20 00:35:47;;;;;;;12.80;4.88;;;12.40;92.30;;;;;;5050882;28;20386;-73
2022/09/20 00:38:13;;;;;;;21.77;4.90;;;12.30;94.20;;;;;;5051160;28;20413;-72
2022/09/20 00:40:41;;;;;;;16.10;4.77;;;12.30;95.20;;;;;;5050980;28;20750;-72
2022/09/20 00:43:12;;;;;;;20.30;5.50;;;12.50;92.20;;;;;;5050996;28;20416;-73
2022/09/20 00:45:38;;;;;;;13.90;4.40;;;12.40;92.50;;;;;;5050954;28;20451;-73
2022/09/20 00:48:24;;;;;;;12.88;4.50;;;12.30;92.80;;;;;;5050932;28;20386;-72
2022/09/20 00:51:03;;;;;;;14.55;4.45;;;12.30;93.20;;;;;;5053403;28;20381;-72
2022/09/20 00:53:35;;;;;;;17.90;4.70;;;12.50;92.90;;;;;;5057760;28;20456;-72
2022/09/20 00:56:05;;;;;;;14.85;4.85;;;12.40;92.90;;;;;;5057680;28;20386;-71
2022/09/20 00:58:37;;;;;;;16.40;4.80;;;12.50;93.20;;;;;;5058579;28;20373;-72
2022/09/20 01:01:04;;;;;;;11.93;4.68;;;12.70;89.40;;;;;;5058308;28;20401;-71
2022/09/20 01:03:32;;;;;;;11.50;4.50;;;12.70;88.50;;;;;;5059004;28;20389;-71
2022/09/20 01:06:02;;;;;;;14.68;4.95;;;12.80;88.30;;;;;;5061221;28;20400;-72
2022/09/20 01:08:27;;;;;;;14.90;5.10;;;12.70;90.00;;;;;;5063474;28;20393;-73
2022/09/20 01:10:53;;;;;;;12.37;5.83;;;12.70;88.20;;;;;;5060218;28;20405;-72
2022/09/20 01:13:19;;;;;;;17.55;5.20;;;12.70;88.80;;;;;;5057925;28;20862;-73
2022/09/20 01:15:46;;;;;;;18.13;5.70;;;12.70;89.00;;;;;;5056113;28;20788;-72
2022/09/20 01:18:12;;;;;;;18.00;5.10;;;12.60;90.50;;;;;;5057383;28;20431;-72
2022/09/20 01:20:41;;;;;;;14.75;5.00;;;12.60;90.20;;;;;;5057145;28;20432;-71
2022/09/20 01:23:40;;;;;;;12.50;4.43;;;12.60;91.20;;;;;;5057163;28;20392;-72
2022/09/20 01:26:19;;;;;;;13.15;4.40;;;12.60;91.10;;;;;;5057301;28;20444;-73
2022/09/20 01:28:52;;;;;;;12.65;4.25;;;12.50;92.10;;;;;;5057195;28;20373;-73
2022/09/20 01:31:25;;;;;;;19.85;4.80;;;12.50;93.30;;;;;;5056675;28;20447;-73
2022/09/20 01:34:16;;;;;;;13.82;4.60;;;12.50;93.90;;;;;;5055636;28;20740;-71
2022/09/20 01:36:51;;;;;;;16.65;4.57;;;12.50;94.80;;;;;;5053694;28;20801;-71
2022/09/20 01:39:38;;;;;;;14.05;4.55;;;12.50;94.40;;;;;;5056975;28;20385;-71
2022/09/20 01:42:12;;;;;;;16.60;4.80;;;12.50;94.30;;;;;;5056707;28;20415;-72
2022/09/20 01:45:03;;;;;;;18.37;4.70;;;12.50;94.60;;;;;;5057789;28;20477;-72
2022/09/20 01:47:49;;;;;;;12.32;4.70;;;12.50;95.20;;;;;;5057095;28;20468;-71
2022/09/20 01:50:41;;;;;;;14.18;4.20;;;12.50;95.20;;;;;;5057090;28;20404;-72
2022/09/20 01:53:35;;;;;;;14.88;4.68;;;12.60;94.80;;;;;;5057530;28;20430;-72
2022/09/20 01:56:34;;;;;;;18.48;5.70;;;12.50;95.20;;;;;;5057112;28;20411;-72
2022/09/20 01:59:05;;;;;;;13.68;4.53;;;12.50;94.90;;;;;;5057640;28;20396;-74
2022/09/20 02:02:04;;;;;;;14.50;4.60;;;12.60;94.10;;;;;;5055865;28;20520;-72
2022/09/20 02:04:54;;;;;;;13.13;4.05;;;12.50;94.80;;;;;;5053356;28;20404;-72
2022/09/20 02:07:58;;;;;;;14.40;4.68;;;12.50;95.10;;;;;;5053808;28;20462;-72
2022/09/20 02:10:40;;;;;;;14.02;4.85;;;12.60;94.80;;;;;;5052201;28;20417;-72
2022/09/20 02:13:14;;;;;;;10.70;5.03;;;12.50;94.80;;;;;;5053243;28;20377;-72
2022/09/20 02:15:54;;;;;;;15.95;5.18;;;12.50;95.00;;;;;;5053556;28;20746;-72
2022/09/20 02:18:46;;;;;;;17.20;4.97;;;12.50;95.20;;;;;;5053744;28;20485;-72
2022/09/20 02:22:00;;;;;;;10.57;4.90;;;12.50;94.20;;;;;;5068599;28;20397;-72
2022/09/20 02:24:37;;;;;;;15.27;4.88;;;12.50;95.00;;;;;;5051487;28;20405;-74
2022/09/20 02:27:41;;;;;;;16.52;5.20;;;12.50;96.50;;;;;;5053419;28;20390;-71
2022/09/20 02:30:32;;;;;;;15.55;5.35;;;12.50;95.50;;;;;;5053608;28;20383;-72
2022/09/20 02:33:33;;;;;;;16.50;5.40;;;12.50;96.20;;;;;;5054703;28;20378;-72
2022/09/20 02:36:20;;;;;;;21.13;6.03;;;12.40;96.90;;;;;;5054287;28;20382;-72
2022/09/20 02:39:12;;;;;;;17.80;6.28;;;12.40;98.90;;;;;;5053447;28;20384;-72
2022/09/20 02:41:57;;;;;;;18.40;5.90;;;12.50;97.50;;;;;;5053394;28;20707;-72
2022/09/20 02:45:13;;;;;;;20.35;6.00;;;12.50;97.00;;;;;;5052642;28;20443;-72
2022/09/20 02:47:42;;;;;;;18.85;6.30;;;12.50;98.10;;;;;;5030543;28;20394;-73
2022/09/20 02:50:31;;;;;;;20.05;6.07;;;12.50;97.00;;;;;;5031014;28;20387;-72
2022/09/20 02:53:38;;;;;;;13.25;5.35;;;12.50;95.10;;;;;;5046737;28;20419;-72
2022/09/20 02:56:49;;;;;;;16.63;5.90;;;12.60;93.00;;;;;;5052793;28;20460;-72
2022/09/20 02:59:51;;;;;;;17.02;5.20;;;12.50;93.00;;;;;;5044355;28;20405;-72
2022/09/20 03:02:19;;;;;;;12.77;5.32;;;12.40;94.10;;;;;;5055099;28;20454;-72
2022/09/20 03:05:00;;;;;;;17.03;5.53;;;12.40;95.50;;;;;;5053035;28;20862;-71
2022/09/20 03:07:45;;;;;;;14.77;5.65;;;12.50;94.90;;;;;;5052492;28;20373;-71
2022/09/20 03:10:36;;;;;;;16.50;6.28;;;12.50;94.60;;;;;;5052597;28;20377;-73
2022/09/20 03:13:37;;;;;;;12.18;6.72;;;12.40;97.30;;;;;;5051955;28;20886;-73
2022/09/20 03:16:17;;;;;;;19.40;6.00;;;12.40;99.40;;;;;;5051942;28;20424;-73
2022/09/20 03:18:49;;;;;;;17.15;5.70;;;12.50;94.80;;;;;;5052046;28;20882;-72
2022/09/20 03:21:27;;;;;;;19.05;5.90;;;12.50;94.30;;;;;;5052096;28;20750;-73
2022/09/20 03:24:11;;;;;;;18.55;5.40;;;12.40;95.10;;;;;;5051909;28;20385;-73
2022/09/20 03:26:49;;;;;;;16.23;5.65;;;12.30;99.00;;;;;;5052143;28;20381;-73
2022/09/20 03:29:21;;;;;;;16.73;5.85;;;12.20;98.70;;;;;;5052562;28;20627;-73
2022/09/20 03:31:59;;;;;;;14.47;5.60;;;12.10;99.90;;;;;;5050901;28;20397;-73
2022/09/20 03:34:55;;;;;;;14.32;6.85;;;12.10;99.90;;;;;;5052356;28;20389;-73
2022/09/20 03:37:42;;;;;;;14.27;5.10;;;12.40;97.10;;;;;;5052229;28;20535;-73
2022/09/20 03:40:18;;;;;;;12.70;4.83;;;12.60;91.60;;;;;;5052555;28;20481;-73
2022/09/20 03:42:51;;;;;;;16.52;5.22;;;12.60;89.90;;;;;;5055265;28;20416;-73
2022/09/20 03:45:49;;;;;;;20.27;6.43;;;12.60;90.60;;;;;;5075317;28;20436;-73
2022/09/20 03:48:42;;;;;;;13.70;6.40;;;12.60;88.90;;;;;;5074095;28;20381;-72
2022/09/20 03:51:16;;;;;;;18.80;6.63;;;12.60;89.80;;;;;;5070618;28;20373;-71
2022/09/20 03:53:59;;;;;;;18.52;6.00;;;12.60;90.80;;;;;;5051875;28;20389;-72
2022/09/20 03:56:40;;;;;;;18.30;6.28;;;12.50;93.30;;;;;;5051742;28;20381;-72
2022/09/20 03:59:53;;;;;;;14.85;5.40;;;12.50;92.30;;;;;;5051746;28;20381;-72
2022/09/20 04:02:50;;;;;;;19.10;6.85;;;12.30;96.50;;;;;;5051635;28;20933;-71
2022/09/20 04:05:25;;;;;;;13.85;6.97;;;12.50;94.60;;;;;;5051242;28;20424;-71
2022/09/20 04:08:30;;;;;;;16.77;7.68;;;12.50;92.90;;;;;;5050055;28;20396;-71
2022/09/20 04:11:34;;;;;;;22.25;5.97;;;12.60;91.00;;;;;;5050674;28;20485;-71
2022/09/20 04:14:15;;;;;;;15.95;5.53;;;12.60;91.50;;;;;;5047001;28;20466;-72
2022/09/20 04:16:52;;;;;;;12.05;5.18;;;12.50;92.60;;;;;;5051122;28;20473;-72
2022/09/20 04:19:24;;;;;;;15.00;5.53;;;12.40;92.70;;;;;;5051154;28;20950;-71
2022/09/20 04:22:00;;;;;;;16.63;5.30;;;12.40;93.90;;;;;;5050690;28;20412;-71
2022/09/20 04:24:29;;;;;;;19.00;6.00;;;12.40;95.50;;;;;;5051123;28;20409;-71
2022/09/20 04:27:02;;;;;;;12.40;5.17;;;12.40;95.40;;;;;;5050310;28;20381;-72
2022/09/20 04:29:54;;;;;;;12.60;5.55;;;12.30;96.50;;;;;;5051420;28;20866;-73
2022/09/20 04:32:43;;;;;;;15.75;5.60;;;12.30;96.50;;;;;;5050804;28;20382;-72
2022/09/20 04:38:19;;;;;;;12.32;5.00;;;12.30;95.60;;;;;;5051630;28;20373;-71
2022/09/20 04:41:00;;;;;;;16.10;5.68;;;12.30;95.50;;;;;;5051041;28;20375;-72
2022/09/20 04:43:51;;;;;;;18.25;6.25;;;12.30;96.40;;;;;;5049553;28;20393;-73
2022/09/20 04:46:23;;;;;;;17.48;6.10;;;12.40;96.40;;;;;;5050680;28;20378;-73
2022/09/20 04:49:15;;;;;;;12.00;5.82;;;12.40;94.90;;;;;;5050988;28;20370;-73
2022/09/20 04:51:47;;;;;;;18.00;5.88;;;12.40;95.00;;;;;;5050643;28;20378;-73
2022/09/20 04:54:49;;;;;;;17.05;5.80;;;12.40;94.90;;;;;;5049567;28;20392;-72
2022/09/20 04:57:45;;;;;;;13.13;5.78;;;12.30;95.10;;;;;;5050876;28;20435;-72
2022/09/20 05:00:22;;;;;;;15.55;5.72;;;12.30;96.00;;;;;;5050880;28;20388;-71
2022/09/20 05:02:54;;;;;;;19.67;6.80;;;12.30;95.90;;;;;;5049079;28;20429;-72
2022/09/20 05:05:41;;;;;;;16.73;6.88;;;12.30;96.50;;;;;;5050411;28;20493;-73
2022/09/20 05:08:22;;;;;;;14.35;6.30;;;12.30;96.40;;;;;;5050600;28;20412;-71
2022/09/20 05:11:08;;;;;;;18.85;6.60;;;12.30;97.10;;;;;;5050660;28;20382;-72
2022/09/20 05:13:59;;;;;;;30.27;7.50;;;12.30;96.90;;;;;;5051047;28;20386;-71
2022/09/20 05:16:33;;;;;;;18.50;6.50;;;12.30;96.90;;;;;;5050561;28;20400;-72
2022/09/20 05:19:22;;;;;;;19.10;7.03;;;12.30;97.10;;;;;;5050608;28;20374;-73
2022/09/20 05:22:30;;;;;;;21.45;7.32;;;12.30;96.90;;;;;;5046746;28;20387;-71
2022/09/20 05:25:13;;;;;;;17.65;7.00;;;12.40;97.50;;;;;;5050423;28;20401;-73
2022/09/20 05:27:49;;;;;;;18.90;8.45;;;12.30;97.50;;;;;;5049969;28;20767;-73
2022/09/20 05:30:41;;;;;;;18.38;7.85;;;12.40;96.40;;;;;;5052112;28;20380;-72
2022/09/20 05:33:44;;;;;;;14.15;7.53;;;12.40;96.50;;;;;;5054365;28;20382;-72
2022/09/20 05:36:43;;;;;;;23.35;9.00;;;12.40;95.70;;;;;;5050431;28;20377;-71
2022/09/20 05:39:33;;;;;;;20.10;8.55;;;12.50;95.90;;;;;;5052718;28;20767;-71
2022/09/20 05:42:10;;;;;;;23.70;8.50;;;12.50;95.60;;;;;;5053657;28;20381;-72
2022/09/20 05:45:05;;;;;;;19.20;8.35;;;12.50;95.30;;;;;;5054199;28;20451;-71
2022/09/20 05:47:51;;;;;;;14.20;8.15;;;12.50;96.20;;;;;;5043987;28;20389;-72
2022/09/20 05:50:31;;;;;;;26.25;8.43;;;12.60;95.30;;;;;;5053728;28;20518;-73
2022/09/20 05:53:03;;;;;;;26.38;8.80;;;12.60;92.50;;;;;;5053412;28;20406;-73
2022/09/20 05:55:45;;;;;;;17.45;8.00;;;12.60;93.10;;;;;;5053903;28;20407;-71
2022/09/20 05:58:46;;;;;;;18.50;8.05;;;12.60;92.80;;;;;;5053962;28;20382;-71
2022/09/20 06:01:24;;;;;;;19.05;8.50;;;12.70;93.20;;;;;;5036768;28;20413;-72
2022/09/20 06:04:07;;;;;;;15.70;8.30;;;12.60;93.20;;;;;;5054247;28;20521;-73
2022/09/20 06:06:49;;;;;;;17.23;8.57;;;12.70;92.20;;;;;;5053905;28;20385;-72
2022/09/20 06:09:32;;;;;;;15.33;7.87;;;12.70;93.00;;;;;;5053765;28;20897;-71
2022/09/20 06:12:30;;;;;;;14.90;8.20;;;12.70;90.50;;;;;;5053317;28;20789;-73
2022/09/20 06:15:21;;;;;;;19.17;8.75;;;12.80;90.70;;;;;;5048585;28;20386;-72
2022/09/20 06:18:17;;;;;;;21.57;9.20;;;12.80;89.00;;;;;;5053238;28;20788;-72
2022/09/20 06:21:07;;;;;;;25.55;9.30;;;12.80;88.60;;;;;;5053377;28;20413;-72
2022/09/20 06:23:35;;;;;;;18.60;9.32;;;12.80;88.60;;;;;;5052977;28;20404;-72
2022/09/20 06:26:06;;;;;;;20.35;9.23;;;12.90;88.20;;;;;;5054077;28;20510;-73
2022/09/20 06:28:37;;;;;;;25.95;9.77;;;12.90;88.90;;;;;;5053374;28;20381;-73
2022/09/20 06:31:06;;;;;;;21.95;9.07;;;12.90;88.00;;;;;;5053337;28;20389;-73
2022/09/20 06:33:32;;;;;;;20.95;10.10;;;12.90;87.30;;;;;;5053496;28;20382;-72
2022/09/20 06:35:57;;;;;;;19.05;9.00;;;12.90;86.20;;;;;;5053167;28;20396;-73
2022/09/20 06:41:27;;;;;;;16.52;9.18;;;12.70;87.20;;;;;;5052942;28;20376;-73
2022/09/20 06:44:00;;;;;;;22.58;9.57;;;12.60;90.50;;;;;;5053269;28;20378;-73
2022/09/20 06:46:27;;;;;;;24.08;9.55;;;12.50;91.80;;;;;;5053418;28;20400;-73
2022/09/20 06:48:54;;;;;;;20.73;9.50;;;12.50;92.50;;;;;;5052317;28;20382;-73
2022/09/20 06:51:21;;;;;;;18.50;9.25;;;12.60;92.00;;;;;;5052899;28;20384;-72
2022/09/20 06:53:47;;;;;;;20.67;9.75;;;12.50;92.30;;;;;;5054477;28;20385;-72
2022/09/20 06:56:21;;;;;;;20.25;9.63;;;12.50;91.50;;;;;;5053507;28;20909;-72
2022/09/20 06:58:46;;;;;;;20.50;9.60;;;12.50;93.00;;;;;;5053104;28;20552;-73
2022/09/20 07:01:12;;;;;;;20.63;10.17;;;12.60;92.40;;;;;;5053090;28;20439;-74
2022/09/20 07:03:39;;;;;;;17.98;9.60;;;12.60;91.20;;;;;;5053875;28;20390;-72
2022/09/20 07:06:05;;;;;;;18.77;9.27;;;12.80;89.30;;;;;;5056449;28;20470;-73
2022/09/20 07:08:31;;;;;;;17.70;9.65;;;12.90;85.30;;;;;;5056523;28;20381;-72
2022/09/20 07:11:01;;;;;;;21.88;10.40;;;13.20;83.40;;;;;;5056601;28;20857;-72
2022/09/20 07:13:26;;;;;;;20.27;9.40;;;13.40;80.30;;;;;;5054607;28;20393;-72
2022/09/20 07:15:59;;;;;;;21.33;9.27;;;13.70;75.60;;;;;;5055364;28;20766;-73
2022/09/20 07:18:25;;;;;;;19.58;9.40;;;13.90;73.30;;;;;;5053637;28;20890;-73
2022/09/20 07:20:50;;;;;;;18.07;8.77;;;13.90;72.20;;;;;;5053609;28;20385;-73
2022/09/20 07:23:17;;;;;;;15.77;8.60;;;14.10;69.60;;;;;;5052481;28;20395;-73
2022/09/20 07:25:42;;;;;;;17.42;7.93;;;14.10;67.40;;;;;;5056284;28;20467;-71
2022/09/20 07:28:08;;;;;;;16.40;7.22;;;14.00;66.70;;;;;;5058197;28;20381;-72
2022/09/20 07:30:33;;;;;;;19.60;8.27;;;13.80;67.50;;;;;;5057271;28;20920;-73
2022/09/20 07:32:59;;;;;;;17.80;7.80;;;13.60;70.60;;;;;;5055658;28;20378;-72
2022/09/20 07:35:25;;;;;;;16.33;7.20;;;13.70;70.50;;;;;;5052494;28;20381;-73
2022/09/20 07:37:56;;;;;;;18.80;7.50;;;13.80;64.70;;;;;;5051947;28;20390;-72
2022/09/20 07:40:22;;;;;;;15.73;7.18;;;14.00;63.40;;;;;;5052849;28;20396;-73
2022/09/20 07:42:48;;;;;;;20.57;7.70;;;14.30;59.80;;;;;;5052604;28;20390;-72
2022/09/20 07:45:13;;;;;;;17.80;6.73;;;14.60;57.00;;;;;;5050977;28;20933;-73
2022/09/20 07:47:40;;;;;;;16.10;6.60;;;14.80;55.50;;;;;;5051981;28;20577;-72
2022/09/20 07:50:08;;;;;;;14.90;6.40;;;14.90;51.00;;;;;;5052078;28;20773;-72
2022/09/20 07:52:34;;;;;;;15.30;6.47;;;14.90;50.10;;;;;;5052620;28;20719;-73
2022/09/20 07:54:59;;;;;;;12.98;5.25;;;14.90;48.90;;;;;;5050791;28;20404;-73
2022/09/20 07:57:25;;;;;;;14.60;5.83;;;14.90;49.60;;;;;;5052386;28;20393;-71
2022/09/20 07:59:51;;;;;;;15.67;6.10;;;15.00;51.80;;;;;;5051643;28;20394;-71
2022/09/20 08:02:16;;;;;;;15.57;5.00;;;15.20;48.00;;;;;;5051445;28;20512;-73
2022/09/20 08:04:42;;;;;;;17.08;5.65;;;15.30;47.60;;;;;;5052140;28;20409;-73
2022/09/20 08:07:08;;;;;;;20.60;5.00;;;15.40;46.00;;;;;;5052086;28;20468;-73
2022/09/20 08:09:33;;;;;;;14.63;4.37;;;15.20;42.40;;;;;;5052117;28;20431;-72
2022/09/20 08:12:00;;;;;;;14.33;4.00;;;15.00;43.10;;;;;;5051798;28;20401;-73
2022/09/20 08:14:26;;;;;;;12.73;4.20;;;15.10;42.10;;;;;;5053586;28;20404;-73
2022/09/20 08:16:51;;;;;;;12.85;4.43;;;15.10;43.40;;;;;;5060171;28;20385;-72
2022/09/20 08:19:19;;;;;;;11.03;3.50;;;15.00;42.70;;;;;;5072467;28;20433;-72
2022/09/20 08:21:46;;;;;;;12.30;4.60;;;15.00;43.90;;;;;;5071630;28;20386;-73
2022/09/20 08:24:12;;;;;;;19.92;5.00;;;15.20;45.50;;;;;;5069912;28;20377;-72
2022/09/20 08:26:37;;;;;;;17.15;5.35;;;15.40;45.20;;;;;;5052493;28;20740;-72
2022/09/20 08:29:04;;;;;;;13.88;3.95;;;15.60;42.10;;;;;;5051262;28;20380;-71
2022/09/20 08:31:33;;;;;;;15.70;4.95;;;15.50;42.70;;;;;;5050702;28;20386;-72
2022/09/20 08:34:02;;;;;;;10.73;4.10;;;15.30;44.20;;;;;;5051259;28;20835;-72
2022/09/20 08:36:29;;;;;;;13.63;4.30;;;15.10;43.70;;;;;;5051046;28;20385;-73
2022/09/20 08:38:56;;;;;;;15.60;5.23;;;14.80;46.50;;;;;;5051019;28;20446;-73
2022/09/20 08:41:33;;;;;;;11.88;4.30;;;14.60;48.00;;;;;;5051999;28;20385;-73
2022/09/20 08:44:05;;;;;;;14.43;4.55;;;14.50;48.10;;;;;;5054296;28;20385;-73
2022/09/20 08:46:40;;;;;;;14.63;5.40;;;14.50;50.20;;;;;;5052229;28;20393;-72
2022/09/20 08:49:07;;;;;;;7.85;4.43;;;14.60;49.60;;;;;;5051511;28;20469;-73
2022/09/20 08:51:37;;;;;;;16.30;5.13;;;14.60;47.60;;;;;;5051359;28;20396;-72
2022/09/20 08:54:06;;;;;;;12.50;4.70;;;14.60;48.40;;;;;;5051260;28;20385;-71
2022/09/20 08:56:35;;;;;;;13.98;4.28;;;14.80;46.90;;;;;;5050517;28;20948;-72
2022/09/20 08:59:02;;;;;;;11.32;4.40;;;15.00;45.80;;;;;;5050586;28;20797;-72
2022/09/20 09:01:31;;;;;;;13.32;4.13;;;15.40;41.30;;;;;;5050590;28;20929;-72
2022/09/20 09:04:13;;;;;;;11.63;4.07;;;15.60;40.90;;;;;;5051224;28;20385;-73
2022/09/20 09:06:40;;;;;;;15.95;4.30;;;15.70;39.80;;;;;;5050480;28;20892;-73
2022/09/20 09:09:06;;;;;;;11.57;4.60;;;15.70;39.40;;;;;;5050619;28;20544;-72
2022/09/20 09:11:33;;;;;;;17.52;4.30;;;15.80;39.60;;;;;;5049552;28;20862;-73
2022/09/20 09:14:03;;;;;;;12.07;3.72;;;16.00;37.40;;;;;;5055276;28;20472;-73
2022/09/20 09:16:33;;;;;;;9.32;3.60;;;15.90;37.80;;;;;;5055450;28;20381;-74
2022/09/20 09:19:29;;;;;;;10.17;3.60;;;16.20;36.60;;;;;;5053998;28;20413;-74
2022/09/20 09:22:01;;;;;;;12.35;3.83;;;16.80;34.60;;;;;;5055054;28;20373;-73
2022/09/20 09:24:27;;;;;;;10.90;3.55;;;17.00;31.60;;;;;;5055009;28;20401;-74
2022/09/20 09:27:15;;;;;;;12.18;3.55;;;16.80;31.00;;;;;;5056628;28;20451;-73
2022/09/20 09:29:54;;;;;;;9.23;3.63;;;16.70;32.30;;;;;;5061243;28;20381;-73
2022/09/20 09:32:20;;;;;;;17.48;3.90;;;16.60;31.40;;;;;;5061640;28;20873;-71
2022/09/20 09:34:46;;;;;;;10.77;3.60;;;16.40;33.50;;;;;;5062329;28;20412;-73
2022/09/20 09:37:27;;;;;;;15.52;3.00;;;16.40;33.70;;;;;;5059683;28;20396;-73
2022/09/20 09:40:18;;;;;;;11.73;2.67;;;16.50;32.90;;;;;;5060532;28;20378;-72
2022/09/20 09:42:58;;;;;;;11.43;3.50;;;16.40;31.80;;;;;;5060116;28;20776;-73
2022/09/20 09:45:37;;;;;;;5.82;2.50;;;16.30;32.70;;;;;;5056383;28;20408;-72
2022/09/20 09:48:17;;;;;;;7.47;2.78;;;16.30;31.00;;;;;;5054097;28;20390;-73
2022/09/20 09:50:43;;;;;;;10.80;2.15;;;16.40;31.20;;;;;;5054050;28;20405;-73
2022/09/20 09:53:20;;;;;;;10.95;2.92;;;16.70;30.60;;;;;;5054023;28;20420;-73
2022/09/20 09:56:23;;;;;;;9.30;2.00;;;17.00;29.20;;;;;;5052642;28;20385;-74
2022/09/20 09:59:21;;;;;;;10.48;2.47;;;17.00;26.70;;;;;;5054109;28;20764;-73
2022/09/20 10:02:11;;;;;;;11.95;2.70;;;17.20;26.70;;;;;;5053959;28;20882;-74
2022/09/20 10:04:51;;;;;;;10.93;2.38;;;16.90;27.90;;;;;;5053606;28;20409;-75
2022/09/20 10:07:28;;;;;;;11.10;2.60;;;16.80;27.70;;;;;;5054055;28;20460;-73
2022/09/20 10:10:24;;;;;;;11.95;2.80;;;16.70;28.20;;;;;;5054415;28;20429;-74
2022/09/20 10:13:13;;;;;;;11.77;2.60;;;16.50;29.10;;;;;;5069339;28;20385;-73
2022/09/20 10:16:22;;;;;;;9.02;2.13;;;16.30;27.50;;;;;;5053658;28;20393;-72
2022/09/20 10:19:02;;;;;;;8.80;2.30;;;15.80;29.20;;;;;;5042231;28;20429;-73
2022/09/20 10:21:49;;;;;;;9.23;2.05;;;15.80;31.00;;;;;;5053426;28;20878;-73
2022/09/20 10:24:48;;;;;;;8.35;1.70;;;15.80;31.10;;;;;;5051234;28;20419;-73
2022/09/20 10:27:36;;;;;;;6.20;1.90;;;15.60;31.70;;;;;;5053546;28;20858;-74
2022/09/20 10:30:13;;;;;;;7.35;1.75;;;15.50;31.50;;;;;;5053747;28;20759;-72
2022/09/20 10:32:55;;;;;;;5.88;2.10;;;15.40;31.20;;;;;;5053605;28;20413;-74
2022/09/20 10:35:30;;;;;;;11.02;2.40;;;15.30;33.30;;;;;;5053602;28;20404;-73
2022/09/20 10:38:10;;;;;;;14.02;2.60;;;15.40;35.10;;;;;;5053480;28;20393;-73
2022/09/20 10:44:11;;;;;;;9.30;2.70;;;15.60;37.00;;;;;;5054290;28;20384;-73
2022/09/20 10:46:59;;;;;;;14.48;3.38;;;15.50;38.90;;;;;;5054582;28;20382;-73
2022/09/20 10:49:28;;;;;;;13.37;2.93;;;15.80;39.40;;;;;;5054426;28;20393;-74
2022/09/20 10:52:09;;;;;;;10.05;3.15;;;16.00;38.10;;;;;;5055302;28;20377;-73
2022/09/20 10:54:56;;;;;;;11.10;2.75;;;16.10;38.60;;;;;;5056498;28;20382;-73
2022/09/20 10:57:35;;;;;;;12.52;3.50;;;16.50;37.10;;;;;;5054735;28;20377;-74
2022/09/20 11:00:21;;;;;;;10.87;3.00;;;16.90;35.30;;;;;;5054496;28;20391;-75
2022/09/20 11:03:17;;;;;;;10.73;2.47;;;17.20;34.30;;;;;;5053897;28;20392;-72
2022/09/20 11:06:01;;;;;;;7.78;1.90;;;17.10;32.70;;;;;;5053250;28;20393;-73
2022/09/20 11:08:32;;;;;;;7.03;2.00;;;16.50;32.90;;;;;;5053177;28;20814;-72
2022/09/20 11:11:11;;;;;;;12.67;2.30;;;16.20;34.90;;;;;;5052685;28;20867;-73
2022/09/20 11:13:39;;;;;;;8.27;1.80;;;16.10;32.10;;;;;;5053510;28;20379;-74
2022/09/20 11:16:13;;;;;;;3.22;1.40;;;16.10;33.30;;;;;;5052546;28;20393;-74
2022/09/20 11:18:59;;;;;;;2.97;1.02;;;16.00;29.70;;;;;;5052425;28;20450;-72
2022/09/20 11:21:37;;;;;;;4.55;1.23;;;16.10;30.10;;;;;;5052387;28;20378;-73
2022/09/20 11:24:26;;;;;;;4.68;1.20;;;16.10;29.60;;;;;;5052173;28;20401;-74
2022/09/20 11:26:56;;;;;;;5.88;1.33;;;16.10;30.10;;;;;;5051635;28;20393;-72
2022/09/20 11:29:46;;;;;;;4.80;1.30;;;16.10;29.60;;;;;;5052400;28;20397;-73
2022/09/20 11:32:24;;;;;;;2.97;1.38;;;16.10;29.00;;;;;;5052454;28;20369;-73
2022/09/20 11:34:52;;;;;;;8.40;2.13;;;16.30;29.80;;;;;;5053111;28;20378;-72
2022/09/20 11:37:19;;;;;;;4.88;1.40;;;16.40;28.50;;;;;;5052373;28;20469;-75
2022/09/20 11:39:54;;;;;;;5.20;1.60;;;16.40;28.70;;;;;;5052144;28;20388;-74
2022/09/20 11:42:25;;;;;;;4.93;1.45;;;16.60;29.00;;;;;;5052031;28;20385;-73
2022/09/20 11:44:51;;;;;;;4.95;1.50;;;16.80;28.80;;;;;;5052454;28;20462;-73
2022/09/20 11:47:34;;;;;;;7.30;1.40;;;16.50;29.60;;;;;;5053211;28;20813;-74
2022/09/20 11:50:38;;;;;;;3.00;1.30;;;16.60;30.20;;;;;;5053422;28;20443;-75
2022/09/20 11:53:25;;;;;;;3.90;1.50;;;16.70;29.00;;;;;;5052138;28;20385;-72
2022/09/20 11:55:57;;;;;;;6.38;2.00;;;17.00;28.60;;;;;;5052444;28;20472;-74
2022/09/20 11:58:24;;;;;;;6.10;1.60;;;17.40;27.50;;;;;;5052280;28;20444;-73
2022/09/20 12:00:53;;;;;;;9.52;1.75;;;17.40;26.50;;;;;;5051594;28;20390;-74
2022/09/20 12:03:35;;;;;;;9.20;2.40;;;17.00;27.30;;;;;;5051980;28;20385;-72
2022/09/20 12:06:24;;;;;;;6.65;2.20;;;17.00;27.50;;;;;;5052296;28;20436;-73
2022/09/20 12:08:51;;;;;;;6.60;2.20;;;17.00;27.90;;;;;;5052993;28;20896;-74
2022/09/20 12:11:32;;;;;;;6.32;1.80;;;16.80;29.60;;;;;;5053304;28;20385;-72
2022/09/20 12:14:05;;;;;;;3.38;1.40;;;16.40;32.20;;;;;;5053227;28;20960;-71
2022/09/20 12:16:49;;;;;;;4.47;1.67;;;16.10;33.70;;;;;;5057693;28;20894;-74
2022/09/20 12:19:31;;;;;;;5.38;1.70;;;15.80;35.10;;;;;;5058691;28;20479;-73
2022/09/20 12:22:00;;;;;;;6.03;2.40;;;15.80;37.80;;;;;;5053654;28;20396;-73
2022/09/20 12:24:40;;;;;;;5.32;2.05;;;16.00;37.20;;;;;;5051919;28;20385;-75
2022/09/20 12:27:41;;;;;;;7.03;2.83;;;16.20;34.70;;;;;;5051713;28;20380;-71
2022/09/20 12:30:22;;;;;;;4.47;1.88;;;16.60;33.50;;;;;;5052037;28;20374;-72
2022/09/20 12:32:50;;;;;;;5.72;2.30;;;16.90;31.90;;;;;;5051810;28;20430;-73
2022/09/20 12:35:34;;;;;;;5.75;2.20;;;17.10;31.30;;;;;;5053687;28;20889;-73
2022/09/20 12:38:18;;;;;;;6.47;1.70;;;17.40;29.90;;;;;;5053465;28;20470;-74
2022/09/20 12:41:01;;;;;;;8.32;2.10;;;17.40;29.70;;;;;;5052235;28;20393;-74
2022/09/20 12:43:29;;;;;;;9.95;2.50;;;17.40;30.80;;;;;;5052848;28;20378;-74
2022/09/20 12:45:56;;;;;;;8.57;1.80;;;17.20;31.20;;;;;;5054689;28;20439;-74
2022/09/20 12:48:22;;;;;;;7.10;1.88;;;17.20;30.70;;;;;;5053870;28;20878;-72
2022/09/20 12:54:05;;;;;;;5.88;2.20;;;17.20;31.80;;;;;;5073529;28;20377;-71
2022/09/20 12:56:38;;;;;;;7.20;2.20;;;17.30;31.60;;;;;;5074052;28;20374;-72
2022/09/20 12:59:19;;;;;;;7.63;2.00;;;17.70;31.00;;;;;;5071415;28;20475;-73
2022/09/20 13:01:45;;;;;;;6.20;1.90;;;17.70;30.10;;;;;;5051018;28;20401;-75
2022/09/20 13:04:48;;;;;;;5.97;1.92;;;18.00;28.80;;;;;;5052478;28;20393;-75
2022/09/20 13:07:33;;;;;;;8.15;1.85;;;18.30;28.00;;;;;;5051650;28;20409;-73
2022/09/20 13:10:22;;;;;;;6.43;1.90;;;18.20;27.60;;;;;;5051357;28;20382;-73
2022/09/20 13:12:50;;;;;;;8.00;1.95;;;18.40;27.50;;;;;;5051933;28;20409;-72
2022/09/20 13:15:20;;;;;;;5.65;1.50;;;18.60;26.90;;;;;;5053536;28;20472;-73
2022/09/20 13:17:50;;;;;;;5.75;1.70;;;18.70;26.30;;;;;;5051321;28;20386;-71
2022/09/20 13:20:21;;;;;;;6.45;2.00;;;18.70;25.50;;;;;;5051199;28;20409;-72
2022/09/20 13:22:47;;;;;;;7.38;1.90;;;18.60;25.40;;;;;;5051546;28;20415;-76
2022/09/20 13:25:15;;;;;;;4.30;1.50;;;18.40;26.20;;;;;;5050010;28;20409;-74
2022/09/20 13:27:57;;;;;;;4.90;1.73;;;18.30;26.00;;;;;;5051231;28;20396;-75
2022/09/20 13:30:34;;;;;;;6.10;1.67;;;18.60;26.50;;;;;;5051716;28;20396;-74
2022/09/20 13:33:24;;;;;;;9.20;2.10;;;19.00;24.60;;;;;;5049825;28;20388;-76
2022/09/20 13:35:53;;;;;;;8.00;1.60;;;19.10;24.40;;;;;;5066481;28;20437;-74
2022/09/20 13:38:23;;;;;;;6.10;1.73;;;19.20;24.30;;;;;;5051273;28;20890;-74
2022/09/20 13:40:50;;;;;;;5.65;2.08;;;19.20;24.00;;;;;;5051108;28;20393;-72
2022/09/20 13:43:34;;;;;;;3.92;1.90;;;19.10;24.10;;;;;;5051227;28;20411;-72
2022/09/20 13:46:07;;;;;;;6.35;2.10;;;19.10;24.20;;;;;;5051000;28;20401;-74